Kathy C — 2CTI7 — position and weather

sailwx.info

Track history (hours):
 
Tides and Currents Weather Stations Pressure Air Temp Water Temp Dewpoint Dewpoint Depression Visibility Wind Speed Wind Dir Waves Ship Positions

Kathy C

Last reported at 2018-May-16 14:35 UTC. Time now 2018-May-24 10:15 UTC.
Position N 35°56' W 005°14'.

Length 106 m; draft 6.9 m.

Type: Cargo ship. MMSI: 235075591.

Date/timePositionNaut miles runAvg speedWind from/ knotsBaromVisibWave heightAir tempDewpointWater temp
2018-May-16 14:35N 35°56' W 005°14'1 9.3
2018-May-16 14:30N 35°55' W 005°15'4 7.5
2018-May-16 14:00N 35°54' W 005°19'0 0.8
2018-May-16 13:29N 35°54' W 005°19'0 0.0
2018-May-16 12:59N 35°54' W 005°19'0 0.0
2018-May-16 12:29N 35°54' W 005°19'0 0.0
2018-May-16 11:59N 35°54' W 005°19'0 0.0
2018-May-16 11:29N 35°54' W 005°19'0 0.0
2018-May-16 10:59N 35°54' W 005°19'0 0.0
2018-May-16 10:29N 35°54' W 005°19'0 0.0
2018-May-16 09:59N 35°54' W 005°19'0 0.0
2018-May-16 09:29N 35°54' W 005°19'0 0.0
2018-May-16 08:59N 35°54' W 005°19'0 0.0
2018-May-16 08:29N 35°54' W 005°19'0 0.0
2018-May-16 07:59N 35°54' W 005°19'0 0.0
2018-May-16 07:26N 35°54' W 005°19'0 0.0
2018-May-16 07:00N 35°54' W 005°19'0 0.9
2018-May-16 06:30N 35°54' W 005°19'1 1.0
2018-May-16 06:00N 35°55' W 005°19'2 3.1
2018-May-16 05:31N 35°56' W 005°20'510.0
2018-May-16 05:00N 35°57' W 005°26'139 9.3
2018-May-15 14:01N 36°21' W 008°15'0 9.7
2018-May-15 14:00N 36°21' W 008°15'5 9.7
2018-May-15 13:30N 36°22' W 008°21'5 9.7
2018-May-15 13:01N 36°24' W 008°27'5 9.6
2018-May-15 12:31N 36°25' W 008°32'5 9.9
2018-May-15 12:00N 36°26' W 008°38'510.0
2018-May-15 11:28N 36°28' W 008°45'6 9.9
2018-May-15 10:55N 36°29' W 008°51'4 9.9
2018-May-15 10:30N 36°30' W 008°56'5 9.7
2018-May-15 10:00N 36°31' W 009°02'138 8.7
2018-May-14 18:06N 38°40' W 010°06'2 9.6
2018-May-14 17:51N 38°43' W 010°06'4 9.6
2018-May-14 17:28N 38°46' W 010°06'11 9.6
2018-May-14 16:19N 38°57' W 010°06'3 9.5
2018-May-14 16:00N 39°00' W 010°06'5 9.6
2018-May-14 15:31N 39°05' W 010°06'7 9.3
2018-May-14 14:45N 39°12' W 010°06'2 9.2
2018-May-14 14:30N 39°15' W 010°06'  
2018-May-11 01:38N 50°10' W 004°22'3 8.7
2018-May-11 01:17N 50°12' W 004°19'3 8.8
2018-May-11 00:58N 50°14' W 004°16'4 8.9
2018-May-11 00:30N 50°17' W 004°12'4 8.7
2018-May-11 00:00N 50°21' W 004°09'1 2.2
2018-May-10 23:28N 50°22' W 004°08'0 0.0
2018-May-10 22:58N 50°22' W 004°08'0 0.0
2018-May-10 22:28N 50°22' W 004°08'0 0.0
2018-May-10 21:58N 50°22' W 004°08'0 0.0
2018-May-10 21:28N 50°22' W 004°08'0 0.0
2018-May-10 20:58N 50°22' W 004°08'0 0.0
2018-May-10 20:28N 50°22' W 004°08'0 0.0
2018-May-10 19:58N 50°22' W 004°08'0 0.0
2018-May-10 19:28N 50°22' W 004°08'0 0.0
2018-May-10 18:58N 50°22' W 004°08'0 0.0
2018-May-10 18:28N 50°22' W 004°08'0 0.0
2018-May-10 17:58N 50°22' W 004°08'0 0.0
2018-May-10 17:28N 50°22' W 004°08'0 0.0
2018-May-10 16:55N 50°22' W 004°08'0 0.0
2018-May-10 16:22N 50°22' W 004°08'0 0.0
2018-May-10 15:58N 50°22' W 004°08'0 0.0
2018-May-10 15:28N 50°22' W 004°08'0 0.0
2018-May-10 14:58N 50°22' W 004°08'0 0.0
2018-May-10 14:28N 50°22' W 004°08'0 0.0
2018-May-10 13:58N 50°22' W 004°08'0 0.0
2018-May-10 13:28N 50°22' W 004°08'0 0.0
2018-May-10 12:58N 50°22' W 004°08'0 0.0
2018-May-10 12:28N 50°22' W 004°08'0 0.0
2018-May-10 11:58N 50°22' W 004°08'0 0.0
2018-May-10 11:28N 50°22' W 004°08'0 0.0
2018-May-10 10:58N 50°22' W 004°08'0 0.0
2018-May-10 10:28N 50°22' W 004°08'0 0.0
2018-May-10 09:58N 50°22' W 004°08'0 0.0
2018-May-10 09:28N 50°22' W 004°08'0 0.0
2018-May-10 08:58N 50°22' W 004°08'0 0.0
2018-May-10 08:28N 50°22' W 004°08'0 0.0
2018-May-10 07:58N 50°22' W 004°08'0 0.0
2018-May-10 07:28N 50°22' W 004°08'0 0.0
2018-May-10 06:58N 50°22' W 004°08'0 0.0
2018-May-10 06:28N 50°22' W 004°08'0 0.0
2018-May-10 05:58N 50°22' W 004°08'0 0.0
2018-May-10 05:28N 50°22' W 004°08'0 0.0
2018-May-10 04:58N 50°22' W 004°08'0 0.0
2018-May-10 04:28N 50°22' W 004°08'0 0.0
2018-May-10 03:58N 50°22' W 004°08'0 0.0
2018-May-10 03:28N 50°22' W 004°08'0 0.0
2018-May-10 02:58N 50°22' W 004°08'0 0.0
2018-May-10 02:28N 50°22' W 004°08'0 0.0
2018-May-10 02:00N 50°22' W 004°08'0 0.7
2018-May-10 01:30N 50°22' W 004°08'3 5.1
2018-May-10 01:00N 50°19' W 004°10'0 0.9
2018-May-10 00:28N 50°20' W 004°09'0 0.0
2018-May-09 23:58N 50°20' W 004°09'0 0.0
2018-May-09 23:28N 50°20' W 004°09'0 0.0
2018-May-09 22:58N 50°20' W 004°09'0 0.0
2018-May-09 22:28N 50°20' W 004°09'0 0.0
2018-May-09 21:58N 50°20' W 004°09'0 0.0
2018-May-09 21:28N 50°20' W 004°09'0 0.1
2018-May-09 20:58N 50°20' W 004°09'0 0.1
2018-May-09 20:28N 50°20' W 004°09'0 0.0
2018-May-09 19:58N 50°20' W 004°09'0 0.0
2018-May-09 19:28N 50°20' W 004°09'0 0.0
2018-May-09 18:58N 50°20' W 004°09'0 0.0
2018-May-09 18:28N 50°20' W 004°09'0 0.2
2018-May-09 18:01N 50°20' W 004°09'3 5.3
2018-May-09 17:30N 50°18' W 004°12'510.4
2018-May-09 17:01N 50°18' W 004°20'910.4
2018-May-09 16:08N 50°18' W 004°35'3 0.1
2018-May-08 12:36N 50°21' W 004°38'0 0.0
2018-May-08 12:27N 50°21' W 004°38'0 0.0
2018-May-08 11:57N 50°21' W 004°38'0 0.0
2018-May-08 07:33N 50°21' W 004°38'0 0.0
2018-May-08 07:29N 50°21' W 004°38'0 0.0
2018-May-08 06:56N 50°21' W 004°38'0 0.0
2018-May-08 06:30N 50°21' W 004°38'0 0.0
2018-May-08 06:00N 50°21' W 004°38'0 0.0
2018-May-08 05:30N 50°21' W 004°38'0 0.0
2018-May-08 05:00N 50°21' W 004°38'0 0.0
2018-May-08 04:30N 50°21' W 004°38'0 0.0
2018-May-08 04:01N 50°21' W 004°38'0 0.0
2018-May-08 03:30N 50°21' W 004°38'0 0.0
2018-May-08 03:01N 50°21' W 004°38'0 0.0
2018-May-08 02:31N 50°21' W 004°38'0 0.0
2018-May-08 01:54N 50°21' W 004°38'0 0.0
2018-May-08 01:30N 50°21' W 004°38'0 0.0
2018-May-08 01:01N 50°21' W 004°38'0 0.0
2018-May-08 00:28N 50°21' W 004°38'0 0.0
2018-May-07 23:48N 50°21' W 004°38'0 0.0
2018-May-07 23:30N 50°21' W 004°38'0 0.0
2018-May-07 23:00N 50°21' W 004°38'0 0.0
2018-May-07 22:31N 50°21' W 004°38'0 0.0
2018-May-07 22:00N 50°21' W 004°38'0 0.0
2018-May-07 21:30N 50°21' W 004°38'0 0.0
2018-May-07 21:00N 50°21' W 004°38'0 0.0
2018-May-07 20:21N 50°21' W 004°38'0 0.0
2018-May-07 20:01N 50°21' W 004°38'0 0.0
2018-May-07 19:30N 50°21' W 004°38'0 0.0
2018-May-07 19:01N 50°21' W 004°38'0 0.0
2018-May-07 18:30N 50°21' W 004°38'0 0.0
2018-May-07 18:01N 50°21' W 004°38'0 0.0
2018-May-07 17:30N 50°21' W 004°38'0 0.0
2018-May-07 17:00N 50°21' W 004°38'0 0.0
2018-May-07 16:30N 50°21' W 004°38'0 0.0
2018-May-07 15:55N 50°21' W 004°38'0 0.0
2018-May-07 15:26N 50°21' W 004°38'0 0.0
2018-May-07 15:01N 50°21' W 004°38'0 0.0
2018-May-07 07:14N 50°21' W 004°38'0 0.0
2018-May-07 07:00N 50°21' W 004°38'0 0.0
2018-May-07 06:31N 50°21' W 004°38'0 0.0
2018-May-07 05:55N 50°21' W 004°38'0 0.0
2018-May-07 05:30N 50°21' W 004°38'0 0.0
2018-May-07 04:56N 50°21' W 004°38'0 0.0
2018-May-07 04:31N 50°21' W 004°38'0 0.0
2018-May-07 04:01N 50°21' W 004°38'0 0.0
2018-May-07 03:24N 50°21' W 004°38'0 0.0
2018-May-07 03:00N 50°21' W 004°38'0 0.0
2018-May-07 02:30N 50°21' W 004°38'0 0.0
2018-May-07 01:47N 50°21' W 004°38'0 0.0
2018-May-07 01:15N 50°21' W 004°38'0 0.0
2018-May-07 01:00N 50°21' W 004°38'0 0.0
2018-May-07 00:29N 50°21' W 004°38'0 0.0
2018-May-06 23:56N 50°21' W 004°38'0 0.0
2018-May-06 23:23N 50°21' W 004°38'0 0.0
2018-May-06 22:39N 50°21' W 004°38'0 0.0
2018-May-06 22:23N 50°21' W 004°38'0 0.0
2018-May-06 21:07N 50°21' W 004°38'0 0.0
2018-May-06 20:57N 50°21' W 004°38'  
Track history (hours):
 
Tides and Currents Weather Stations Pressure Air Temp Water Temp Dewpoint Dewpoint Depression Visibility Wind Speed Wind Dir Waves Ship Positions

Kathy C

Last reported at 2018-May-16 14:35 UTC. Time now 2018-May-24 10:15 UTC.
Position N 35°56' W 005°14'.

Length 106 m; draft 6.9 m.

Type: Cargo ship. MMSI: 235075591.

Date/timePositionNaut miles runAvg speedWind from/ knotsBaromVisibWave heightAir tempDewpointWater temp
2018-May-16 14:35N 35°56' W 005°14'1 9.3
2018-May-16 14:30N 35°55' W 005°15'4 7.5
2018-May-16 14:00N 35°54' W 005°19'0 0.8
2018-May-16 13:29N 35°54' W 005°19'0 0.0
2018-May-16 12:59N 35°54' W 005°19'0 0.0
2018-May-16 12:29N 35°54' W 005°19'0 0.0
2018-May-16 11:59N 35°54' W 005°19'0 0.0
2018-May-16 11:29N 35°54' W 005°19'0 0.0
2018-May-16 10:59N 35°54' W 005°19'0 0.0
2018-May-16 10:29N 35°54' W 005°19'0 0.0
2018-May-16 09:59N 35°54' W 005°19'0 0.0
2018-May-16 09:29N 35°54' W 005°19'0 0.0
2018-May-16 08:59N 35°54' W 005°19'0 0.0
2018-May-16 08:29N 35°54' W 005°19'0 0.0
2018-May-16 07:59N 35°54' W 005°19'0 0.0
2018-May-16 07:26N 35°54' W 005°19'0 0.0
2018-May-16 07:00N 35°54' W 005°19'0 0.9
2018-May-16 06:30N 35°54' W 005°19'1 1.0
2018-May-16 06:00N 35°55' W 005°19'2 3.1
2018-May-16 05:31N 35°56' W 005°20'510.0
2018-May-16 05:00N 35°57' W 005°26'139 9.3
2018-May-15 14:01N 36°21' W 008°15'0 9.7
2018-May-15 14:00N 36°21' W 008°15'5 9.7
2018-May-15 13:30N 36°22' W 008°21'5 9.7
2018-May-15 13:01N 36°24' W 008°27'5 9.6
2018-May-15 12:31N 36°25' W 008°32'5 9.9
2018-May-15 12:00N 36°26' W 008°38'510.0
2018-May-15 11:28N 36°28' W 008°45'6 9.9
2018-May-15 10:55N 36°29' W 008°51'4 9.9
2018-May-15 10:30N 36°30' W 008°56'5 9.7
2018-May-15 10:00N 36°31' W 009°02'138 8.7
2018-May-14 18:06N 38°40' W 010°06'2 9.6
2018-May-14 17:51N 38°43' W 010°06'4 9.6
2018-May-14 17:28N 38°46' W 010°06'11 9.6
2018-May-14 16:19N 38°57' W 010°06'3 9.5
2018-May-14 16:00N 39°00' W 010°06'5 9.6
2018-May-14 15:31N 39°05' W 010°06'7 9.3
2018-May-14 14:45N 39°12' W 010°06'2 9.2
2018-May-14 14:30N 39°15' W 010°06'  
2018-May-11 01:38N 50°10' W 004°22'3 8.7
2018-May-11 01:17N 50°12' W 004°19'3 8.8
2018-May-11 00:58N 50°14' W 004°16'4 8.9
2018-May-11 00:30N 50°17' W 004°12'4 8.7
2018-May-11 00:00N 50°21' W 004°09'1 2.2
2018-May-10 23:28N 50°22' W 004°08'0 0.0
2018-May-10 22:58N 50°22' W 004°08'0 0.0
2018-May-10 22:28N 50°22' W 004°08'0 0.0
2018-May-10 21:58N 50°22' W 004°08'0 0.0
2018-May-10 21:28N 50°22' W 004°08'0 0.0
2018-May-10 20:58N 50°22' W 004°08'0 0.0
2018-May-10 20:28N 50°22' W 004°08'0 0.0
2018-May-10 19:58N 50°22' W 004°08'0 0.0
2018-May-10 19:28N 50°22' W 004°08'0 0.0
2018-May-10 18:58N 50°22' W 004°08'0 0.0
2018-May-10 18:28N 50°22' W 004°08'0 0.0
2018-May-10 17:58N 50°22' W 004°08'0 0.0
2018-May-10 17:28N 50°22' W 004°08'0 0.0
2018-May-10 16:55N 50°22' W 004°08'0 0.0
2018-May-10 16:22N 50°22' W 004°08'0 0.0
2018-May-10 15:58N 50°22' W 004°08'0 0.0
2018-May-10 15:28N 50°22' W 004°08'0 0.0
2018-May-10 14:58N 50°22' W 004°08'0 0.0
2018-May-10 14:28N 50°22' W 004°08'0 0.0
2018-May-10 13:58N 50°22' W 004°08'0 0.0
2018-May-10 13:28N 50°22' W 004°08'0 0.0
2018-May-10 12:58N 50°22' W 004°08'0 0.0
2018-May-10 12:28N 50°22' W 004°08'0 0.0
2018-May-10 11:58N 50°22' W 004°08'0 0.0
2018-May-10 11:28N 50°22' W 004°08'0 0.0
2018-May-10 10:58N 50°22' W 004°08'0 0.0
2018-May-10 10:28N 50°22' W 004°08'0 0.0
2018-May-10 09:58N 50°22' W 004°08'0 0.0
2018-May-10 09:28N 50°22' W 004°08'0 0.0
2018-May-10 08:58N 50°22' W 004°08'0 0.0
2018-May-10 08:28N 50°22' W 004°08'0 0.0
2018-May-10 07:58N 50°22' W 004°08'0 0.0
2018-May-10 07:28N 50°22' W 004°08'0 0.0
2018-May-10 06:58N 50°22' W 004°08'0 0.0
2018-May-10 06:28N 50°22' W 004°08'0 0.0
2018-May-10 05:58N 50°22' W 004°08'0 0.0
2018-May-10 05:28N 50°22' W 004°08'0 0.0
2018-May-10 04:58N 50°22' W 004°08'0 0.0
2018-May-10 04:28N 50°22' W 004°08'0 0.0
2018-May-10 03:58N 50°22' W 004°08'0 0.0
2018-May-10 03:28N 50°22' W 004°08'0 0.0
2018-May-10 02:58N 50°22' W 004°08'0 0.0
2018-May-10 02:28N 50°22' W 004°08'0 0.0
2018-May-10 02:00N 50°22' W 004°08'0 0.7
2018-May-10 01:30N 50°22' W 004°08'3 5.1
2018-May-10 01:00N 50°19' W 004°10'0 0.9
2018-May-10 00:28N 50°20' W 004°09'0 0.0
2018-May-09 23:58N 50°20' W 004°09'0 0.0
2018-May-09 23:28N 50°20' W 004°09'0 0.0
2018-May-09 22:58N 50°20' W 004°09'0 0.0
2018-May-09 22:28N 50°20' W 004°09'0 0.0
2018-May-09 21:58N 50°20' W 004°09'0 0.0
2018-May-09 21:28N 50°20' W 004°09'0 0.1
2018-May-09 20:58N 50°20' W 004°09'0 0.1
2018-May-09 20:28N 50°20' W 004°09'0 0.0
2018-May-09 19:58N 50°20' W 004°09'0 0.0
2018-May-09 19:28N 50°20' W 004°09'0 0.0
2018-May-09 18:58N 50°20' W 004°09'0 0.0
2018-May-09 18:28N 50°20' W 004°09'0 0.2
2018-May-09 18:01N 50°20' W 004°09'3 5.3
2018-May-09 17:30N 50°18' W 004°12'510.4
2018-May-09 17:01N 50°18' W 004°20'910.4
2018-May-09 16:08N 50°18' W 004°35'3 0.1
2018-May-08 12:36N 50°21' W 004°38'0 0.0
2018-May-08 12:27N 50°21' W 004°38'0 0.0
2018-May-08 11:57N 50°21' W 004°38'0 0.0
2018-May-08 07:33N 50°21' W 004°38'0 0.0
2018-May-08 07:29N 50°21' W 004°38'0 0.0
2018-May-08 06:56N 50°21' W 004°38'0 0.0
2018-May-08 06:30N 50°21' W 004°38'0 0.0
2018-May-08 06:00N 50°21' W 004°38'0 0.0
2018-May-08 05:30N 50°21' W 004°38'0 0.0
2018-May-08 05:00N 50°21' W 004°38'0 0.0
2018-May-08 04:30N 50°21' W 004°38'0 0.0
2018-May-08 04:01N 50°21' W 004°38'0 0.0
2018-May-08 03:30N 50°21' W 004°38'0 0.0
2018-May-08 03:01N 50°21' W 004°38'0 0.0
2018-May-08 02:31N 50°21' W 004°38'0 0.0
2018-May-08 01:54N 50°21' W 004°38'0 0.0
2018-May-08 01:30N 50°21' W 004°38'0 0.0
2018-May-08 01:01N 50°21' W 004°38'0 0.0
2018-May-08 00:28N 50°21' W 004°38'0 0.0
2018-May-07 23:48N 50°21' W 004°38'0 0.0
2018-May-07 23:30N 50°21' W 004°38'0 0.0
2018-May-07 23:00N 50°21' W 004°38'0 0.0
2018-May-07 22:31N 50°21' W 004°38'0 0.0
2018-May-07 22:00N 50°21' W 004°38'0 0.0
2018-May-07 21:30N 50°21' W 004°38'0 0.0
2018-May-07 21:00N 50°21' W 004°38'0 0.0
2018-May-07 20:21N 50°21' W 004°38'0 0.0
2018-May-07 20:01N 50°21' W 004°38'0 0.0
2018-May-07 19:30N 50°21' W 004°38'0 0.0
2018-May-07 19:01N 50°21' W 004°38'0 0.0
2018-May-07 18:30N 50°21' W 004°38'0 0.0
2018-May-07 18:01N 50°21' W 004°38'0 0.0
2018-May-07 17:30N 50°21' W 004°38'0 0.0
2018-May-07 17:00N 50°21' W 004°38'0 0.0
2018-May-07 16:30N 50°21' W 004°38'0 0.0
2018-May-07 15:55N 50°21' W 004°38'0 0.0
2018-May-07 15:26N 50°21' W 004°38'0 0.0
2018-May-07 15:01N 50°21' W 004°38'0 0.0
2018-May-07 07:14N 50°21' W 004°38'0 0.0
2018-May-07 07:00N 50°21' W 004°38'0 0.0
2018-May-07 06:31N 50°21' W 004°38'0 0.0
2018-May-07 05:55N 50°21' W 004°38'0 0.0
2018-May-07 05:30N 50°21' W 004°38'0 0.0
2018-May-07 04:56N 50°21' W 004°38'0 0.0
2018-May-07 04:31N 50°21' W 004°38'0 0.0
2018-May-07 04:01N 50°21' W 004°38'0 0.0
2018-May-07 03:24N 50°21' W 004°38'0 0.0
2018-May-07 03:00N 50°21' W 004°38'0 0.0
2018-May-07 02:30N 50°21' W 004°38'0 0.0
2018-May-07 01:47N 50°21' W 004°38'0 0.0
2018-May-07 01:15N 50°21' W 004°38'0 0.0
2018-May-07 01:00N 50°21' W 004°38'0 0.0
2018-May-07 00:29N 50°21' W 004°38'0 0.0
2018-May-06 23:56N 50°21' W 004°38'0 0.0
2018-May-06 23:23N 50°21' W 004°38'0 0.0
2018-May-06 22:39N 50°21' W 004°38'0 0.0
2018-May-06 22:23N 50°21' W 004°38'0 0.0
2018-May-06 21:07N 50°21' W 004°38'0 0.0
2018-May-06 20:57N 50°21' W 004°38'  

Dump ship's entire track history